createdAt,value
2022-10-23T00:04:45.086Z,10.44
2022-10-23T00:09:46.768Z,10.42
2022-10-23T00:14:51.548Z,10.48
2022-10-23T00:19:53.384Z,10.46
2022-10-23T00:24:57.579Z,10.38
2022-10-23T00:30:01.643Z,10.35
2022-10-23T00:35:08.031Z,10.46
2022-10-23T00:40:13.677Z,10.49
2022-10-23T00:45:31.253Z,10.57
2022-10-23T00:50:35.347Z,10.55
2022-10-23T00:55:41.253Z,10.56
2022-10-23T01:00:45.715Z,10.55
2022-10-23T01:05:52.087Z,10.53
2022-10-23T01:11:27.567Z,10.53
2022-10-23T01:16:56.197Z,10.51
2022-10-23T01:22:16.805Z,10.53
2022-10-23T01:27:33.377Z,10.57
2022-10-23T01:32:44.921Z,10.59
2022-10-23T01:37:53.956Z,10.60
2022-10-23T01:42:59.934Z,10.52
2022-10-23T01:48:07.745Z,10.52
2022-10-23T01:53:14.333Z,10.46
2022-10-23T01:58:21.171Z,10.37
2022-10-23T02:03:27.404Z,10.33
2022-10-23T02:08:31.569Z,10.29
2022-10-23T02:13:55.732Z,10.27
2022-10-23T02:19:07.436Z,10.20
2022-10-23T02:24:15.546Z,10.15
2022-10-23T02:29:25.997Z,10.22
2022-10-23T02:34:29.855Z,10.11
2022-10-23T02:39:36.926Z,10.09
2022-10-23T02:44:53.742Z,10.11
2022-10-23T02:49:57.719Z,10.13
2022-10-23T02:55:11.638Z,10.11
2022-10-23T03:00:23.613Z,10.08
2022-10-23T03:05:34.547Z,10.04
2022-10-23T03:10:41.717Z,9.99
2022-10-23T03:15:46.722Z,9.94
2022-10-23T03:20:53.698Z,9.95
2022-10-23T03:25:59.723Z,9.94
2022-10-23T03:31:15.248Z,9.95
2022-10-23T03:36:21.454Z,9.87
2022-10-23T03:41:28.846Z,9.75
2022-10-23T03:46:30.608Z,9.78
2022-10-23T03:51:37.045Z,9.82
2022-10-23T03:56:41.470Z,9.79
2022-10-23T04:01:44.818Z,9.72
2022-10-23T04:06:48.980Z,9.63
2022-10-23T04:11:54.243Z,9.59
2022-10-23T04:16:56.912Z,9.60
2022-10-23T04:21:59.760Z,9.60
2022-10-23T04:27:04.290Z,9.59
2022-10-23T04:32:08.351Z,9.59
2022-10-23T04:37:12.534Z,9.59
2022-10-23T04:42:14.484Z,9.60
2022-10-23T04:47:20.476Z,9.62
2022-10-23T04:52:33.623Z,9.62
2022-10-23T04:58:04.611Z,9.61
2022-10-23T05:03:07.242Z,9.62
2022-10-23T05:08:17.066Z,9.64
2022-10-23T05:13:41.558Z,9.56
2022-10-23T05:18:47.651Z,9.54
2022-10-23T05:23:49.883Z,9.57
2022-10-23T05:28:51.798Z,9.56
2022-10-23T05:33:55.419Z,9.59
2022-10-23T05:39:00.522Z,9.60
2022-10-23T05:44:05.650Z,9.61
2022-10-23T05:49:26.232Z,9.60
2022-10-23T05:55:09.447Z,9.63
2022-10-23T06:00:25.303Z,9.66
2022-10-23T06:05:52.386Z,9.70
2022-10-23T06:10:59.233Z,9.73
2022-10-23T06:16:11.732Z,9.73
2022-10-23T06:21:15.278Z,9.73
2022-10-23T06:26:19.586Z,9.74
2022-10-23T06:31:46.198Z,9.76
2022-10-23T06:36:48.074Z,9.77
2022-10-23T06:42:05.700Z,9.79
2022-10-23T06:47:33.538Z,9.85
2022-10-23T06:53:01.628Z,9.91
2022-10-23T06:58:10.614Z,9.97
2022-10-23T07:03:23.026Z,10.04
2022-10-23T07:08:25.032Z,10.11
2022-10-23T07:13:31.938Z,10.20
2022-10-23T07:18:46.846Z,10.26
2022-10-23T07:24:04.236Z,10.35
2022-10-23T07:29:11.698Z,10.43
2022-10-23T07:34:13.690Z,10.50
2022-10-23T07:39:19.039Z,10.58
2022-10-23T07:44:27.851Z,10.65
2022-10-23T07:49:30.905Z,10.72
2022-10-23T07:54:33.159Z,10.79
2022-10-23T07:59:39.014Z,10.85
2022-10-23T08:04:51.411Z,10.92
2022-10-23T08:10:01.441Z,11.01
2022-10-23T08:15:09.893Z,11.07
2022-10-23T08:20:25.987Z,11.15
2022-10-23T08:25:33.929Z,11.23
2022-10-23T08:30:38.503Z,11.33
2022-10-23T08:35:42.830Z,11.40
2022-10-23T08:40:48.659Z,11.48
2022-10-23T08:46:13.161Z,11.54
2022-10-23T08:51:44.817Z,11.62
2022-10-23T08:56:51.497Z,11.71
2022-10-23T09:02:01.297Z,11.78
2022-10-23T09:07:20.722Z,11.89
2022-10-23T09:12:26.390Z,11.99
2022-10-23T09:17:31.393Z,12.12
2022-10-23T09:22:33.366Z,12.20
2022-10-23T09:27:40.360Z,12.25
2022-10-23T09:32:43.582Z,12.32
2022-10-23T09:37:53.255Z,12.38
2022-10-23T09:43:03.922Z,12.44
2022-10-23T09:48:06.777Z,12.51
2022-10-23T09:53:18.870Z,12.61
2022-10-23T09:58:28.300Z,12.78
2022-10-23T10:03:37.488Z,12.91
2022-10-23T10:08:49.525Z,13.06
2022-10-23T10:14:08.396Z,13.29
2022-10-23T10:19:17.188Z,13.55
2022-10-23T10:24:28.861Z,13.84
2022-10-23T10:29:57.801Z,14.07
2022-10-23T10:35:26.502Z,14.23
2022-10-23T10:40:38.304Z,14.47
2022-10-23T10:45:47.911Z,14.53
2022-10-23T10:50:53.373Z,14.73
2022-10-23T10:56:07.561Z,14.91
2022-10-23T11:01:29.158Z,14.99
2022-10-23T11:06:36.088Z,15.07
2022-10-23T11:11:40.888Z,15.09
2022-10-23T11:16:46.924Z,15.28
2022-10-23T11:22:07.026Z,15.54
2022-10-23T11:27:28.506Z,15.65
2022-10-23T11:32:51.948Z,15.84
2022-10-23T11:38:11.958Z,16.06
2022-10-23T11:43:14.145Z,16.29
2022-10-23T11:48:21.472Z,16.45
2022-10-23T11:53:32.630Z,16.47
2022-10-23T11:58:50.954Z,16.59
2022-10-23T12:03:58.800Z,16.85
2022-10-23T12:09:31.584Z,16.86
2022-10-23T12:14:44.414Z,16.73
2022-10-23T12:19:50.221Z,17.12
2022-10-23T12:25:04.462Z,16.99
2022-10-23T12:30:19.288Z,16.75
2022-10-23T12:35:24.307Z,16.96
2022-10-23T12:40:30.141Z,17.32
2022-10-23T12:45:40.709Z,17.04
2022-10-23T12:50:50.685Z,16.74
2022-10-23T13:01:06.447Z,16.42
2022-10-23T13:06:13.115Z,16.27
2022-10-23T13:11:21.763Z,16.15
2022-10-23T13:16:28.894Z,16.04
2022-10-23T13:21:30.956Z,15.96
2022-10-23T13:26:45.283Z,15.89
2022-10-23T13:31:49.812Z,15.90
2022-10-23T13:37:20.614Z,15.81
2022-10-23T13:42:22.412Z,15.76
2022-10-23T13:47:26.862Z,15.70
2022-10-23T13:52:28.668Z,15.66
2022-10-23T13:57:32.791Z,15.61
2022-10-23T14:02:34.654Z,15.60
2022-10-23T14:07:36.582Z,15.59
2022-10-23T14:12:43.333Z,15.56
2022-10-23T14:17:49.483Z,15.54
2022-10-23T14:22:54.512Z,15.50
2022-10-23T14:27:56.580Z,15.49
2022-10-23T14:33:01.871Z,15.49
2022-10-23T14:38:05.798Z,15.56
2022-10-23T14:43:07.856Z,15.54
2022-10-23T14:48:15.960Z,15.45
2022-10-23T14:53:20.314Z,15.40
2022-10-23T14:58:24.632Z,15.31
2022-10-23T15:03:31.933Z,15.23
2022-10-23T15:08:34.192Z,15.16
2022-10-23T15:13:38.627Z,15.12
2022-10-23T15:18:42.510Z,15.05
2022-10-23T15:23:47.498Z,15.01
2022-10-23T15:28:54.946Z,14.97
2022-10-23T15:33:57.785Z,14.94
2022-10-23T15:39:00.866Z,14.92
2022-10-23T15:44:04.684Z,14.90
2022-10-23T15:49:08.546Z,14.86
2022-10-23T15:54:16.646Z,14.80
2022-10-23T15:59:25.357Z,14.76
2022-10-23T16:04:29.914Z,14.72
2022-10-23T16:09:38.770Z,14.69
2022-10-23T16:14:41.006Z,14.61
2022-10-23T16:19:42.911Z,14.54
2022-10-23T16:24:44.776Z,14.50
2022-10-23T16:29:53.156Z,14.45
2022-10-23T16:34:58.894Z,14.40
2022-10-23T16:40:05.190Z,14.38
2022-10-23T16:45:25.492Z,14.35
2022-10-23T16:50:30.286Z,14.33
2022-10-23T16:55:34.787Z,14.33
2022-10-23T17:00:38.881Z,14.33
2022-10-23T17:05:45.051Z,14.30
2022-10-23T17:10:52.145Z,14.31
2022-10-23T17:16:28.626Z,14.29
2022-10-23T17:21:41.463Z,14.29
2022-10-23T17:26:45.534Z,14.29
2022-10-23T17:31:51.116Z,14.27
2022-10-23T17:36:54.710Z,14.24
2022-10-23T17:42:00.987Z,14.23
2022-10-23T17:47:05.065Z,14.19
2022-10-23T17:52:14.465Z,14.15
2022-10-23T17:57:16.504Z,14.11
2022-10-23T18:02:23.651Z,14.05
2022-10-23T18:07:26.661Z,14.01
2022-10-23T18:12:31.627Z,13.99
2022-10-23T18:17:33.474Z,13.99
2022-10-23T18:22:38.723Z,14.01
2022-10-23T18:27:41.624Z,14.03
2022-10-23T18:32:47.294Z,14.07
2022-10-23T18:37:52.537Z,14.11
2022-10-23T18:42:56.463Z,14.16
2022-10-23T18:47:58.501Z,14.22
2022-10-23T18:53:06.380Z,14.24
2022-10-23T18:58:08.416Z,14.29
2022-10-23T19:03:12.011Z,14.36
2022-10-23T19:08:13.931Z,14.42
2022-10-23T19:13:17.463Z,14.42
2022-10-23T19:18:24.109Z,14.43
2022-10-23T19:23:30.519Z,14.43
2022-10-23T19:28:37.636Z,14.44
2022-10-23T19:33:42.146Z,14.45
2022-10-23T19:38:49.308Z,14.45
2022-10-23T19:43:51.159Z,14.43
2022-10-23T19:48:54.859Z,14.43
2022-10-23T19:53:57.718Z,14.43
2022-10-23T19:58:59.579Z,14.42
2022-10-23T20:04:01.630Z,14.43
2022-10-23T20:09:11.658Z,14.46
2022-10-23T20:14:17.171Z,14.46
2022-10-23T20:19:28.719Z,14.43
2022-10-23T20:24:30.483Z,14.42
2022-10-23T20:29:32.570Z,14.38
2022-10-23T20:34:39.456Z,14.36
2022-10-23T20:39:41.420Z,14.33
2022-10-23T20:44:45.295Z,14.27
2022-10-23T20:49:51.237Z,14.22
2022-10-23T20:54:55.291Z,14.16
2022-10-23T21:00:00.731Z,14.12
2022-10-23T21:05:07.798Z,14.07
2022-10-23T21:10:09.733Z,14.03
2022-10-23T21:15:11.925Z,14.00
2022-10-23T21:20:18.564Z,14.01
2022-10-23T21:25:20.374Z,14.02
2022-10-23T21:30:24.966Z,14.03
2022-10-23T21:35:30.146Z,14.06
2022-10-23T21:40:32.086Z,14.11
2022-10-23T21:45:35.439Z,14.15
2022-10-23T21:50:37.216Z,14.18
2022-10-23T21:55:39.312Z,14.20
2022-10-23T22:00:45.594Z,14.21
2022-10-23T22:05:47.444Z,14.22
2022-10-23T22:10:52.425Z,14.24
2022-10-23T22:15:58.685Z,14.28
2022-10-23T22:21:05.942Z,14.31
2022-10-23T22:26:25.186Z,14.36
2022-10-23T22:31:29.518Z,14.39
2022-10-23T22:36:37.757Z,14.42
2022-10-23T22:41:46.616Z,14.43
2022-10-23T22:46:53.259Z,14.42
2022-10-23T22:51:55.023Z,14.40
2022-10-23T22:57:00.617Z,14.37
2022-10-23T23:02:08.343Z,14.38
2022-10-23T23:07:12.980Z,14.36
2022-10-23T23:12:15.521Z,14.38
2022-10-23T23:17:17.341Z,14.36
2022-10-23T23:22:19.138Z,14.39
2022-10-23T23:27:20.950Z,14.46
2022-10-23T23:32:25.035Z,14.47
2022-10-23T23:37:26.859Z,14.46
2022-10-23T23:42:34.502Z,14.47
2022-10-23T23:47:41.610Z,14.47
2022-10-23T23:52:43.725Z,14.48
2022-10-23T23:57:57.870Z,14.53
